sensor_id;sensor_type;location;lat;lon;timestamp;P1;durP1;ratioP1;P2;durP2;ratioP2
43835;SDS011;39345;43.964;25.340;2023-06-22T00:01:21;14.75;;;13.13;;
43835;SDS011;39345;43.964;25.340;2023-06-22T00:03:49;16.30;;;13.98;;
43835;SDS011;39345;43.964;25.340;2023-06-22T00:06:17;17.30;;;13.32;;
43835;SDS011;39345;43.964;25.340;2023-06-22T00:08:45;15.38;;;13.63;;
43835;SDS011;39345;43.964;25.340;2023-06-22T00:11:12;17.83;;;14.23;;
43835;SDS011;39345;43.964;25.340;2023-06-22T00:13:40;18.33;;;14.20;;
43835;SDS011;39345;43.964;25.340;2023-06-22T00:16:09;18.45;;;13.40;;
43835;SDS011;39345;43.964;25.340;2023-06-22T00:18:37;18.73;;;13.40;;
43835;SDS011;39345;43.964;25.340;2023-06-22T00:21:05;18.13;;;13.10;;
43835;SDS011;39345;43.964;25.340;2023-06-22T00:23:32;14.48;;;12.95;;
43835;SDS011;39345;43.964;25.340;2023-06-22T00:26:01;15.88;;;13.30;;
43835;SDS011;39345;43.964;25.340;2023-06-22T00:28:28;17.10;;;14.40;;
43835;SDS011;39345;43.964;25.340;2023-06-22T00:30:56;17.70;;;13.73;;
43835;SDS011;39345;43.964;25.340;2023-06-22T00:33:24;17.65;;;13.70;;
43835;SDS011;39345;43.964;25.340;2023-06-22T00:35:52;15.77;;;13.27;;
43835;SDS011;39345;43.964;25.340;2023-06-22T00:38:20;15.48;;;13.70;;
43835;SDS011;39345;43.964;25.340;2023-06-22T00:40:47;16.08;;;13.90;;
43835;SDS011;39345;43.964;25.340;2023-06-22T00:43:15;20.90;;;14.70;;
43835;SDS011;39345;43.964;25.340;2023-06-22T00:45:42;16.05;;;13.25;;
43835;SDS011;39345;43.964;25.340;2023-06-22T00:48:13;14.90;;;13.32;;
43835;SDS011;39345;43.964;25.340;2023-06-22T00:50:41;16.10;;;13.70;;
43835;SDS011;39345;43.964;25.340;2023-06-22T00:53:09;15.73;;;13.80;;
43835;SDS011;39345;43.964;25.340;2023-06-22T00:55:39;15.70;;;14.00;;
43835;SDS011;39345;43.964;25.340;2023-06-22T00:58:10;18.30;;;13.68;;
43835;SDS011;39345;43.964;25.340;2023-06-22T01:00:40;15.77;;;14.05;;
43835;SDS011;39345;43.964;25.340;2023-06-22T01:03:08;15.65;;;14.02;;
43835;SDS011;39345;43.964;25.340;2023-06-22T01:05:37;14.73;;;13.23;;
43835;SDS011;39345;43.964;25.340;2023-06-22T01:13:13;19.80;;;13.45;;
43835;SDS011;39345;43.964;25.340;2023-06-22T01:15:44;19.13;;;14.50;;
43835;SDS011;39345;43.964;25.340;2023-06-22T01:18:16;15.75;;;13.35;;
43835;SDS011;39345;43.964;25.340;2023-06-22T01:20:44;18.30;;;14.07;;
43835;SDS011;39345;43.964;25.340;2023-06-22T01:23:17;17.23;;;14.43;;
43835;SDS011;39345;43.964;25.340;2023-06-22T01:25:49;17.80;;;14.40;;
43835;SDS011;39345;43.964;25.340;2023-06-22T01:31:04;17.45;;;13.98;;
43835;SDS011;39345;43.964;25.340;2023-06-22T01:33:37;17.65;;;13.57;;
43835;SDS011;39345;43.964;25.340;2023-06-22T01:36:05;18.55;;;14.13;;
43835;SDS011;39345;43.964;25.340;2023-06-22T01:38:34;21.33;;;14.25;;
43835;SDS011;39345;43.964;25.340;2023-06-22T01:41:02;16.15;;;14.10;;
43835;SDS011;39345;43.964;25.340;2023-06-22T01:43:31;16.17;;;13.43;;
43835;SDS011;39345;43.964;25.340;2023-06-22T01:46:01;15.30;;;13.15;;
43835;SDS011;39345;43.964;25.340;2023-06-22T01:48:29;18.83;;;13.60;;
43835;SDS011;39345;43.964;25.340;2023-06-22T01:50:57;16.90;;;12.93;;
43835;SDS011;39345;43.964;25.340;2023-06-22T01:53:25;15.98;;;12.68;;
43835;SDS011;39345;43.964;25.340;2023-06-22T01:55:52;15.68;;;12.85;;
43835;SDS011;39345;43.964;25.340;2023-06-22T01:58:20;17.83;;;13.00;;
43835;SDS011;39345;43.964;25.340;2023-06-22T02:00:50;17.77;;;12.68;;
43835;SDS011;39345;43.964;25.340;2023-06-22T02:03:22;14.40;;;12.65;;
43835;SDS011;39345;43.964;25.340;2023-06-22T02:05:55;15.20;;;13.55;;
43835;SDS011;39345;43.964;25.340;2023-06-22T02:08:25;17.58;;;12.82;;
43835;SDS011;39345;43.964;25.340;2023-06-22T02:10:54;15.88;;;12.38;;
43835;SDS011;39345;43.964;25.340;2023-06-22T02:13:23;15.48;;;12.95;;
43835;SDS011;39345;43.964;25.340;2023-06-22T02:15:51;16.50;;;12.88;;
43835;SDS011;39345;43.964;25.340;2023-06-22T02:18:19;17.52;;;12.95;;
43835;SDS011;39345;43.964;25.340;2023-06-22T02:20:47;16.98;;;12.82;;
43835;SDS011;39345;43.964;25.340;2023-06-22T02:23:14;17.75;;;12.48;;
43835;SDS011;39345;43.964;25.340;2023-06-22T02:25:42;14.75;;;12.30;;
43835;SDS011;39345;43.964;25.340;2023-06-22T02:28:10;18.85;;;13.55;;
43835;SDS011;39345;43.964;25.340;2023-06-22T02:30:38;18.00;;;13.65;;
43835;SDS011;39345;43.964;25.340;2023-06-22T02:33:06;17.13;;;13.70;;
43835;SDS011;39345;43.964;25.340;2023-06-22T02:35:33;17.65;;;14.18;;
43835;SDS011;39345;43.964;25.340;2023-06-22T02:38:02;18.35;;;12.98;;
43835;SDS011;39345;43.964;25.340;2023-06-22T02:40:30;18.33;;;13.00;;
43835;SDS011;39345;43.964;25.340;2023-06-22T02:42:58;16.52;;;14.48;;
43835;SDS011;39345;43.964;25.340;2023-06-22T02:45:29;20.67;;;14.43;;
43835;SDS011;39345;43.964;25.340;2023-06-22T02:47:56;16.80;;;14.75;;
43835;SDS011;39345;43.964;25.340;2023-06-22T02:50:24;18.25;;;15.35;;
43835;SDS011;39345;43.964;25.340;2023-06-22T02:52:53;19.02;;;15.68;;
43835;SDS011;39345;43.964;25.340;2023-06-22T02:55:21;21.08;;;15.75;;
43835;SDS011;39345;43.964;25.340;2023-06-22T02:57:54;21.38;;;16.25;;
43835;SDS011;39345;43.964;25.340;2023-06-22T03:00:23;21.15;;;16.08;;
43835;SDS011;39345;43.964;25.340;2023-06-22T03:02:58;22.52;;;16.48;;
43835;SDS011;39345;43.964;25.340;2023-06-22T03:05:26;20.00;;;16.00;;
43835;SDS011;39345;43.964;25.340;2023-06-22T03:07:54;23.13;;;16.52;;
43835;SDS011;39345;43.964;25.340;2023-06-22T03:10:22;21.00;;;16.08;;
43835;SDS011;39345;43.964;25.340;2023-06-22T03:12:49;20.80;;;15.45;;
43835;SDS011;39345;43.964;25.340;2023-06-22T03:15:17;21.85;;;15.48;;
43835;SDS011;39345;43.964;25.340;2023-06-22T03:17:47;17.48;;;15.27;;
43835;SDS011;39345;43.964;25.340;2023-06-22T03:20:15;22.67;;;16.67;;
43835;SDS011;39345;43.964;25.340;2023-06-22T03:22:42;18.83;;;16.20;;
43835;SDS011;39345;43.964;25.340;2023-06-22T03:25:10;18.23;;;15.65;;
43835;SDS011;39345;43.964;25.340;2023-06-22T03:27:43;17.33;;;14.98;;
43835;SDS011;39345;43.964;25.340;2023-06-22T03:30:11;18.23;;;15.20;;
43835;SDS011;39345;43.964;25.340;2023-06-22T03:32:39;20.65;;;15.70;;
43835;SDS011;39345;43.964;25.340;2023-06-22T03:35:08;23.02;;;15.68;;
43835;SDS011;39345;43.964;25.340;2023-06-22T03:37:36;22.05;;;16.00;;
43835;SDS011;39345;43.964;25.340;2023-06-22T03:40:04;21.65;;;15.80;;
43835;SDS011;39345;43.964;25.340;2023-06-22T03:42:33;22.20;;;16.38;;
43835;SDS011;39345;43.964;25.340;2023-06-22T03:45:02;20.40;;;15.63;;
43835;SDS011;39345;43.964;25.340;2023-06-22T03:47:30;19.38;;;15.80;;
43835;SDS011;39345;43.964;25.340;2023-06-22T03:49:58;22.13;;;16.30;;
43835;SDS011;39345;43.964;25.340;2023-06-22T03:52:25;19.30;;;15.82;;
43835;SDS011;39345;43.964;25.340;2023-06-22T03:54:53;19.90;;;16.30;;
43835;SDS011;39345;43.964;25.340;2023-06-22T03:57:20;22.25;;;18.52;;
43835;SDS011;39345;43.964;25.340;2023-06-22T03:59:48;20.13;;;17.13;;
43835;SDS011;39345;43.964;25.340;2023-06-22T04:02:15;22.05;;;17.35;;
43835;SDS011;39345;43.964;25.340;2023-06-22T04:04:43;21.33;;;17.13;;
43835;SDS011;39345;43.964;25.340;2023-06-22T04:07:10;19.70;;;17.00;;
43835;SDS011;39345;43.964;25.340;2023-06-22T04:09:38;19.63;;;16.67;;
43835;SDS011;39345;43.964;25.340;2023-06-22T04:12:05;21.88;;;16.95;;
43835;SDS011;39345;43.964;25.340;2023-06-22T04:14:33;21.05;;;17.08;;
43835;SDS011;39345;43.964;25.340;2023-06-22T04:17:01;18.80;;;16.08;;
43835;SDS011;39345;43.964;25.340;2023-06-22T04:19:28;20.10;;;15.75;;
43835;SDS011;39345;43.964;25.340;2023-06-22T04:21:56;20.45;;;16.63;;
43835;SDS011;39345;43.964;25.340;2023-06-22T04:24:23;19.55;;;16.13;;
43835;SDS011;39345;43.964;25.340;2023-06-22T04:26:51;20.42;;;16.23;;
43835;SDS011;39345;43.964;25.340;2023-06-22T04:29:21;19.05;;;15.70;;
43835;SDS011;39345;43.964;25.340;2023-06-22T04:31:56;22.10;;;16.33;;
43835;SDS011;39345;43.964;25.340;2023-06-22T04:34:29;20.15;;;15.68;;
43835;SDS011;39345;43.964;25.340;2023-06-22T04:36:57;18.25;;;15.88;;
43835;SDS011;39345;43.964;25.340;2023-06-22T04:39:24;20.17;;;16.77;;
43835;SDS011;39345;43.964;25.340;2023-06-22T04:41:53;17.90;;;14.18;;
43835;SDS011;39345;43.964;25.340;2023-06-22T04:44:27;17.30;;;13.10;;
43835;SDS011;39345;43.964;25.340;2023-06-22T04:46:55;18.20;;;15.52;;
43835;SDS011;39345;43.964;25.340;2023-06-22T04:49:30;20.80;;;16.67;;
43835;SDS011;39345;43.964;25.340;2023-06-22T04:52:04;21.77;;;15.27;;
43835;SDS011;39345;43.964;25.340;2023-06-22T04:54:32;14.50;;;12.55;;
43835;SDS011;39345;43.964;25.340;2023-06-22T04:57:00;17.40;;;12.50;;
43835;SDS011;39345;43.964;25.340;2023-06-22T04:59:30;15.88;;;12.05;;
43835;SDS011;39345;43.964;25.340;2023-06-22T05:01:58;13.07;;;10.85;;
43835;SDS011;39345;43.964;25.340;2023-06-22T05:04:26;14.95;;;11.43;;
43835;SDS011;39345;43.964;25.340;2023-06-22T05:06:54;15.38;;;11.70;;
43835;SDS011;39345;43.964;25.340;2023-06-22T05:09:22;15.73;;;12.02;;
43835;SDS011;39345;43.964;25.340;2023-06-22T05:11:51;14.27;;;12.15;;
43835;SDS011;39345;43.964;25.340;2023-06-22T05:14:18;14.52;;;11.65;;
43835;SDS011;39345;43.964;25.340;2023-06-22T05:16:46;13.55;;;11.82;;
43835;SDS011;39345;43.964;25.340;2023-06-22T05:19:13;28.80;;;13.18;;
43835;SDS011;39345;43.964;25.340;2023-06-22T05:21:41;13.77;;;11.38;;
43835;SDS011;39345;43.964;25.340;2023-06-22T05:24:08;13.95;;;12.40;;
43835;SDS011;39345;43.964;25.340;2023-06-22T05:26:36;14.40;;;12.00;;
43835;SDS011;39345;43.964;25.340;2023-06-22T05:29:03;15.35;;;11.13;;
43835;SDS011;39345;43.964;25.340;2023-06-22T05:31:30;12.18;;;10.85;;
43835;SDS011;39345;43.964;25.340;2023-06-22T05:33:58;11.55;;;10.35;;
43835;SDS011;39345;43.964;25.340;2023-06-22T05:36:27;11.80;;;10.02;;
43835;SDS011;39345;43.964;25.340;2023-06-22T05:38:55;15.90;;;9.52;;
43835;SDS011;39345;43.964;25.340;2023-06-22T05:41:24;13.85;;;9.40;;
43835;SDS011;39345;43.964;25.340;2023-06-22T05:43:51;10.48;;;8.32;;
43835;SDS011;39345;43.964;25.340;2023-06-22T05:46:19;11.70;;;8.70;;
43835;SDS011;39345;43.964;25.340;2023-06-22T05:48:46;11.15;;;8.70;;
43835;SDS011;39345;43.964;25.340;2023-06-22T05:51:14;10.73;;;8.32;;
43835;SDS011;39345;43.964;25.340;2023-06-22T05:53:41;11.38;;;8.05;;
43835;SDS011;39345;43.964;25.340;2023-06-22T05:56:10;9.48;;;8.48;;
43835;SDS011;39345;43.964;25.340;2023-06-22T05:58:38;10.15;;;9.05;;
43835;SDS011;39345;43.964;25.340;2023-06-22T06:01:06;9.77;;;8.02;;
43835;SDS011;39345;43.964;25.340;2023-06-22T06:03:33;11.38;;;8.63;;
43835;SDS011;39345;43.964;25.340;2023-06-22T06:06:07;9.50;;;8.50;;
43835;SDS011;39345;43.964;25.340;2023-06-22T06:08:37;10.20;;;8.25;;
43835;SDS011;39345;43.964;25.340;2023-06-22T06:11:05;9.77;;;8.13;;
43835;SDS011;39345;43.964;25.340;2023-06-22T06:13:32;7.97;;;7.10;;
43835;SDS011;39345;43.964;25.340;2023-06-22T06:16:00;10.23;;;7.28;;
43835;SDS011;39345;43.964;25.340;2023-06-22T06:18:27;9.45;;;7.28;;
43835;SDS011;39345;43.964;25.340;2023-06-22T06:20:55;8.00;;;7.15;;
43835;SDS011;39345;43.964;25.340;2023-06-22T06:23:22;8.02;;;7.22;;
43835;SDS011;39345;43.964;25.340;2023-06-22T06:25:50;9.88;;;7.03;;
43835;SDS011;39345;43.964;25.340;2023-06-22T06:28:17;11.70;;;7.30;;
43835;SDS011;39345;43.964;25.340;2023-06-22T06:30:45;7.78;;;6.47;;
43835;SDS011;39345;43.964;25.340;2023-06-22T06:33:13;7.30;;;6.55;;
43835;SDS011;39345;43.964;25.340;2023-06-22T06:35:41;10.55;;;8.00;;
43835;SDS011;39345;43.964;25.340;2023-06-22T06:38:09;10.75;;;6.75;;
43835;SDS011;39345;43.964;25.340;2023-06-22T06:40:37;7.30;;;6.60;;
43835;SDS011;39345;43.964;25.340;2023-06-22T06:43:04;9.57;;;6.68;;
43835;SDS011;39345;43.964;25.340;2023-06-22T06:45:32;10.27;;;6.22;;
43835;SDS011;39345;43.964;25.340;2023-06-22T06:48:03;6.95;;;6.25;;
43835;SDS011;39345;43.964;25.340;2023-06-22T06:50:30;9.10;;;6.35;;
43835;SDS011;39345;43.964;25.340;2023-06-22T06:52:58;7.18;;;6.47;;
43835;SDS011;39345;43.964;25.340;2023-06-22T06:55:26;7.47;;;6.25;;
43835;SDS011;39345;43.964;25.340;2023-06-22T06:57:54;10.05;;;6.30;;
43835;SDS011;39345;43.964;25.340;2023-06-22T07:00:22;6.93;;;5.95;;
43835;SDS011;39345;43.964;25.340;2023-06-22T07:02:52;6.60;;;5.90;;
43835;SDS011;39345;43.964;25.340;2023-06-22T07:05:19;9.07;;;6.45;;
43835;SDS011;39345;43.964;25.340;2023-06-22T07:07:47;8.77;;;6.00;;
43835;SDS011;39345;43.964;25.340;2023-06-22T07:10:15;9.00;;;6.28;;
43835;SDS011;39345;43.964;25.340;2023-06-22T07:12:44;7.55;;;6.05;;
43835;SDS011;39345;43.964;25.340;2023-06-22T07:15:12;8.80;;;5.95;;
43835;SDS011;39345;43.964;25.340;2023-06-22T07:17:39;8.43;;;6.15;;
43835;SDS011;39345;43.964;25.340;2023-06-22T07:20:08;12.20;;;6.00;;
43835;SDS011;39345;43.964;25.340;2023-06-22T07:22:40;9.88;;;6.38;;
43835;SDS011;39345;43.964;25.340;2023-06-22T07:25:09;6.78;;;5.82;;
43835;SDS011;39345;43.964;25.340;2023-06-22T07:27:43;6.43;;;5.80;;
43835;SDS011;39345;43.964;25.340;2023-06-22T07:30:11;6.95;;;5.60;;
43835;SDS011;39345;43.964;25.340;2023-06-22T07:32:39;12.52;;;8.30;;
43835;SDS011;39345;43.964;25.340;2023-06-22T07:35:07;8.40;;;7.03;;
43835;SDS011;39345;43.964;25.340;2023-06-22T07:37:35;7.90;;;5.97;;
43835;SDS011;39345;43.964;25.340;2023-06-22T07:40:02;7.88;;;6.75;;
43835;SDS011;39345;43.964;25.340;2023-06-22T07:42:33;6.63;;;5.93;;
43835;SDS011;39345;43.964;25.340;2023-06-22T07:45:00;8.60;;;5.90;;
43835;SDS011;39345;43.964;25.340;2023-06-22T07:47:29;8.02;;;5.85;;
43835;SDS011;39345;43.964;25.340;2023-06-22T07:49:57;8.75;;;5.90;;
43835;SDS011;39345;43.964;25.340;2023-06-22T07:52:28;7.00;;;6.25;;
43835;SDS011;39345;43.964;25.340;2023-06-22T07:54:55;10.88;;;6.38;;
43835;SDS011;39345;43.964;25.340;2023-06-22T07:57:23;9.07;;;6.35;;
43835;SDS011;39345;43.964;25.340;2023-06-22T08:00:03;7.00;;;6.32;;
43835;SDS011;39345;43.964;25.340;2023-06-22T08:02:41;6.68;;;5.78;;
43835;SDS011;39345;43.964;25.340;2023-06-22T08:05:09;10.57;;;7.68;;
43835;SDS011;39345;43.964;25.340;2023-06-22T08:07:40;7.57;;;6.78;;
43835;SDS011;39345;43.964;25.340;2023-06-22T08:10:12;7.43;;;5.70;;
43835;SDS011;39345;43.964;25.340;2023-06-22T08:12:40;5.90;;;5.30;;
43835;SDS011;39345;43.964;25.340;2023-06-22T08:15:08;6.70;;;6.00;;
43835;SDS011;39345;43.964;25.340;2023-06-22T08:17:39;6.07;;;5.47;;
43835;SDS011;39345;43.964;25.340;2023-06-22T08:20:07;7.72;;;5.47;;
43835;SDS011;39345;43.964;25.340;2023-06-22T08:22:39;8.20;;;5.97;;
43835;SDS011;39345;43.964;25.340;2023-06-22T08:25:07;8.10;;;5.65;;
43835;SDS011;39345;43.964;25.340;2023-06-22T08:27:35;8.02;;;5.20;;
43835;SDS011;39345;43.964;25.340;2023-06-22T08:30:03;6.75;;;4.97;;
43835;SDS011;39345;43.964;25.340;2023-06-22T08:32:31;7.32;;;5.20;;
43835;SDS011;39345;43.964;25.340;2023-06-22T08:35:01;5.45;;;4.95;;
43835;SDS011;39345;43.964;25.340;2023-06-22T08:37:29;5.82;;;5.22;;
43835;SDS011;39345;43.964;25.340;2023-06-22T08:39:58;5.85;;;4.68;;
43835;SDS011;39345;43.964;25.340;2023-06-22T08:42:27;5.75;;;5.20;;
43835;SDS011;39345;43.964;25.340;2023-06-22T08:44:55;6.82;;;5.50;;
43835;SDS011;39345;43.964;25.340;2023-06-22T08:47:22;6.68;;;5.10;;
43835;SDS011;39345;43.964;25.340;2023-06-22T08:49:50;8.23;;;6.07;;
43835;SDS011;39345;43.964;25.340;2023-06-22T08:52:17;9.05;;;5.50;;
43835;SDS011;39345;43.964;25.340;2023-06-22T08:54:47;6.82;;;5.13;;
43835;SDS011;39345;43.964;25.340;2023-06-22T08:57:15;7.25;;;5.82;;
43835;SDS011;39345;43.964;25.340;2023-06-22T08:59:43;7.65;;;5.15;;
43835;SDS011;39345;43.964;25.340;2023-06-22T09:02:10;8.98;;;5.18;;
43835;SDS011;39345;43.964;25.340;2023-06-22T09:04:38;8.38;;;5.20;;
43835;SDS011;39345;43.964;25.340;2023-06-22T09:07:06;8.38;;;5.80;;
43835;SDS011;39345;43.964;25.340;2023-06-22T09:09:34;8.05;;;5.78;;
43835;SDS011;39345;43.964;25.340;2023-06-22T09:12:01;8.20;;;6.10;;
43835;SDS011;39345;43.964;25.340;2023-06-22T09:14:29;8.77;;;5.78;;
43835;SDS011;39345;43.964;25.340;2023-06-22T09:16:56;7.57;;;6.13;;
43835;SDS011;39345;43.964;25.340;2023-06-22T09:19:24;6.75;;;6.03;;
43835;SDS011;39345;43.964;25.340;2023-06-22T09:21:51;8.77;;;6.97;;
43835;SDS011;39345;43.964;25.340;2023-06-22T09:24:19;7.07;;;6.38;;
43835;SDS011;39345;43.964;25.340;2023-06-22T09:26:46;7.22;;;6.18;;
43835;SDS011;39345;43.964;25.340;2023-06-22T09:29:14;8.00;;;5.90;;
43835;SDS011;39345;43.964;25.340;2023-06-22T09:31:41;7.50;;;6.22;;
43835;SDS011;39345;43.964;25.340;2023-06-22T09:34:09;6.70;;;6.00;;
43835;SDS011;39345;43.964;25.340;2023-06-22T09:36:36;6.97;;;6.07;;
43835;SDS011;39345;43.964;25.340;2023-06-22T09:39:06;8.77;;;5.95;;
43835;SDS011;39345;43.964;25.340;2023-06-22T09:41:33;12.15;;;6.40;;
43835;SDS011;39345;43.964;25.340;2023-06-22T09:44:01;8.10;;;6.25;;
43835;SDS011;39345;43.964;25.340;2023-06-22T09:46:28;8.93;;;6.25;;
43835;SDS011;39345;43.964;25.340;2023-06-22T09:48:56;8.52;;;6.43;;
43835;SDS011;39345;43.964;25.340;2023-06-22T09:51:23;7.90;;;6.43;;
43835;SDS011;39345;43.964;25.340;2023-06-22T09:53:51;9.68;;;5.97;;
43835;SDS011;39345;43.964;25.340;2023-06-22T09:56:20;7.50;;;5.85;;
43835;SDS011;39345;43.964;25.340;2023-06-22T09:58:47;9.48;;;6.28;;
43835;SDS011;39345;43.964;25.340;2023-06-22T10:01:20;7.50;;;6.72;;
43835;SDS011;39345;43.964;25.340;2023-06-22T10:03:48;7.80;;;6.22;;
43835;SDS011;39345;43.964;25.340;2023-06-22T10:06:16;7.75;;;6.00;;
43835;SDS011;39345;43.964;25.340;2023-06-22T10:08:43;8.13;;;6.60;;
43835;SDS011;39345;43.964;25.340;2023-06-22T10:11:11;9.35;;;6.40;;
43835;SDS011;39345;43.964;25.340;2023-06-22T10:13:39;7.40;;;5.97;;
43835;SDS011;39345;43.964;25.340;2023-06-22T10:16:06;9.38;;;6.20;;
43835;SDS011;39345;43.964;25.340;2023-06-22T10:18:34;8.60;;;6.25;;
43835;SDS011;39345;43.964;25.340;2023-06-22T10:21:01;9.07;;;6.30;;
43835;SDS011;39345;43.964;25.340;2023-06-22T10:23:29;8.95;;;6.45;;
43835;SDS011;39345;43.964;25.340;2023-06-22T10:25:56;6.88;;;6.10;;
43835;SDS011;39345;43.964;25.340;2023-06-22T10:28:24;7.70;;;6.53;;
43835;SDS011;39345;43.964;25.340;2023-06-22T10:30:52;8.13;;;6.80;;
43835;SDS011;39345;43.964;25.340;2023-06-22T10:33:19;7.93;;;6.47;;
43835;SDS011;39345;43.964;25.340;2023-06-22T10:35:47;7.40;;;6.47;;
43835;SDS011;39345;43.964;25.340;2023-06-22T10:38:15;8.75;;;6.53;;
43835;SDS011;39345;43.964;25.340;2023-06-22T10:40:42;7.68;;;6.45;;
43835;SDS011;39345;43.964;25.340;2023-06-22T10:43:10;7.93;;;6.30;;
43835;SDS011;39345;43.964;25.340;2023-06-22T10:45:38;8.57;;;7.78;;
43835;SDS011;39345;43.964;25.340;2023-06-22T10:48:06;7.57;;;6.60;;
43835;SDS011;39345;43.964;25.340;2023-06-22T10:50:33;8.75;;;6.25;;
43835;SDS011;39345;43.964;25.340;2023-06-22T10:53:01;8.07;;;6.60;;
43835;SDS011;39345;43.964;25.340;2023-06-22T10:55:28;8.48;;;7.50;;
43835;SDS011;39345;43.964;25.340;2023-06-22T10:58:17;8.30;;;6.32;;
43835;SDS011;39345;43.964;25.340;2023-06-22T11:00:45;10.88;;;8.10;;
43835;SDS011;39345;43.964;25.340;2023-06-22T11:03:13;6.35;;;5.75;;
43835;SDS011;39345;43.964;25.340;2023-06-22T11:05:41;6.93;;;6.03;;
43835;SDS011;39345;43.964;25.340;2023-06-22T11:08:08;6.93;;;6.22;;
43835;SDS011;39345;43.964;25.340;2023-06-22T11:10:37;6.70;;;6.00;;
43835;SDS011;39345;43.964;25.340;2023-06-22T11:13:05;6.70;;;6.10;;
43835;SDS011;39345;43.964;25.340;2023-06-22T11:15:38;7.82;;;5.78;;
43835;SDS011;39345;43.964;25.340;2023-06-22T11:18:06;9.10;;;7.05;;
43835;SDS011;39345;43.964;25.340;2023-06-22T11:20:34;7.28;;;6.57;;
43835;SDS011;39345;43.964;25.340;2023-06-22T11:23:05;7.03;;;5.97;;
43835;SDS011;39345;43.964;25.340;2023-06-22T11:25:33;7.03;;;5.93;;
43835;SDS011;39345;43.964;25.340;2023-06-22T11:28:04;6.95;;;6.30;;
43835;SDS011;39345;43.964;25.340;2023-06-22T11:30:32;7.07;;;6.05;;
43835;SDS011;39345;43.964;25.340;2023-06-22T11:33:00;7.15;;;6.35;;
43835;SDS011;39345;43.964;25.340;2023-06-22T11:35:28;6.63;;;5.97;;
43835;SDS011;39345;43.964;25.340;2023-06-22T11:37:55;9.35;;;6.57;;
43835;SDS011;39345;43.964;25.340;2023-06-22T11:40:23;8.93;;;6.53;;
43835;SDS011;39345;43.964;25.340;2023-06-22T11:42:50;9.05;;;6.68;;
43835;SDS011;39345;43.964;25.340;2023-06-22T11:45:20;8.63;;;6.32;;
43835;SDS011;39345;43.964;25.340;2023-06-22T11:47:48;6.60;;;5.97;;
43835;SDS011;39345;43.964;25.340;2023-06-22T11:50:15;7.85;;;6.15;;
43835;SDS011;39345;43.964;25.340;2023-06-22T11:52:43;8.02;;;6.00;;
43835;SDS011;39345;43.964;25.340;2023-06-22T11:55:10;7.15;;;5.68;;
43835;SDS011;39345;43.964;25.340;2023-06-22T11:57:53;10.93;;;6.00;;
43835;SDS011;39345;43.964;25.340;2023-06-22T12:00:24;7.05;;;5.78;;
43835;SDS011;39345;43.964;25.340;2023-06-22T12:02:55;8.52;;;5.53;;
43835;SDS011;39345;43.964;25.340;2023-06-22T12:05:26;7.13;;;6.18;;
43835;SDS011;39345;43.964;25.340;2023-06-22T12:07:54;12.80;;;6.43;;
43835;SDS011;39345;43.964;25.340;2023-06-22T12:10:22;8.05;;;5.65;;
43835;SDS011;39345;43.964;25.340;2023-06-22T12:12:51;8.00;;;5.45;;
43835;SDS011;39345;43.964;25.340;2023-06-22T12:15:19;7.03;;;5.80;;
43835;SDS011;39345;43.964;25.340;2023-06-22T12:17:46;8.80;;;6.30;;
43835;SDS011;39345;43.964;25.340;2023-06-22T12:20:16;8.30;;;7.50;;
43835;SDS011;39345;43.964;25.340;2023-06-22T12:22:45;7.80;;;6.95;;
43835;SDS011;39345;43.964;25.340;2023-06-22T12:25:13;8.35;;;6.20;;
43835;SDS011;39345;43.964;25.340;2023-06-22T12:27:41;10.20;;;8.70;;
43835;SDS011;39345;43.964;25.340;2023-06-22T12:30:08;10.05;;;7.40;;
43835;SDS011;39345;43.964;25.340;2023-06-22T12:32:36;8.50;;;6.07;;
43835;SDS011;39345;43.964;25.340;2023-06-22T12:35:06;8.52;;;5.97;;
43835;SDS011;39345;43.964;25.340;2023-06-22T12:37:38;7.70;;;5.80;;
43835;SDS011;39345;43.964;25.340;2023-06-22T12:40:06;12.38;;;10.90;;
43835;SDS011;39345;43.964;25.340;2023-06-22T12:42:36;7.53;;;6.55;;
43835;SDS011;39345;43.964;25.340;2023-06-22T12:45:07;6.38;;;5.70;;
43835;SDS011;39345;43.964;25.340;2023-06-22T12:47:35;12.80;;;6.57;;
43835;SDS011;39345;43.964;25.340;2023-06-22T12:50:05;7.72;;;6.32;;
43835;SDS011;39345;43.964;25.340;2023-06-22T12:52:33;7.82;;;5.55;;
43835;SDS011;39345;43.964;25.340;2023-06-22T12:55:00;9.43;;;5.82;;
43835;SDS011;39345;43.964;25.340;2023-06-22T12:57:28;7.68;;;6.40;;
43835;SDS011;39345;43.964;25.340;2023-06-22T12:59:55;6.50;;;5.82;;
43835;SDS011;39345;43.964;25.340;2023-06-22T13:02:24;6.78;;;5.88;;
43835;SDS011;39345;43.964;25.340;2023-06-22T13:04:53;6.32;;;5.72;;
43835;SDS011;39345;43.964;25.340;2023-06-22T13:07:20;6.60;;;5.72;;
43835;SDS011;39345;43.964;25.340;2023-06-22T13:09:49;6.70;;;6.07;;
43835;SDS011;39345;43.964;25.340;2023-06-22T13:12:20;7.65;;;5.97;;
43835;SDS011;39345;43.964;25.340;2023-06-22T13:14:48;8.73;;;6.40;;
43835;SDS011;39345;43.964;25.340;2023-06-22T13:17:16;7.40;;;6.30;;
43835;SDS011;39345;43.964;25.340;2023-06-22T13:19:43;6.35;;;5.75;;
43835;SDS011;39345;43.964;25.340;2023-06-22T13:24:57;7.07;;;5.72;;
43835;SDS011;39345;43.964;25.340;2023-06-22T13:27:25;7.00;;;5.20;;
43835;SDS011;39345;43.964;25.340;2023-06-22T13:29:53;7.88;;;5.97;;
43835;SDS011;39345;43.964;25.340;2023-06-22T13:32:20;8.02;;;5.72;;
43835;SDS011;39345;43.964;25.340;2023-06-22T13:34:48;7.70;;;6.10;;
43835;SDS011;39345;43.964;25.340;2023-06-22T13:37:16;6.28;;;5.68;;
43835;SDS011;39345;43.964;25.340;2023-06-22T13:39:43;6.82;;;5.40;;
43835;SDS011;39345;43.964;25.340;2023-06-22T13:42:11;6.13;;;5.35;;
43835;SDS011;39345;43.964;25.340;2023-06-22T13:44:38;7.60;;;5.88;;
43835;SDS011;39345;43.964;25.340;2023-06-22T13:47:06;7.95;;;5.78;;
43835;SDS011;39345;43.964;25.340;2023-06-22T13:49:33;7.55;;;6.85;;
43835;SDS011;39345;43.964;25.340;2023-06-22T13:52:01;8.20;;;5.32;;
43835;SDS011;39345;43.964;25.340;2023-06-22T13:54:30;8.98;;;7.70;;
43835;SDS011;39345;43.964;25.340;2023-06-22T13:57:01;8.35;;;6.35;;
43835;SDS011;39345;43.964;25.340;2023-06-22T13:59:28;6.55;;;5.85;;
43835;SDS011;39345;43.964;25.340;2023-06-22T14:01:56;8.75;;;5.68;;
43835;SDS011;39345;43.964;25.340;2023-06-22T14:04:24;9.77;;;5.63;;
43835;SDS011;39345;43.964;25.340;2023-06-22T14:06:52;11.93;;;6.10;;
43835;SDS011;39345;43.964;25.340;2023-06-22T14:09:22;6.28;;;5.68;;
43835;SDS011;39345;43.964;25.340;2023-06-22T14:12:02;9.55;;;7.38;;
43835;SDS011;39345;43.964;25.340;2023-06-22T14:14:31;8.30;;;6.28;;
43835;SDS011;39345;43.964;25.340;2023-06-22T14:16:59;10.95;;;7.35;;
43835;SDS011;39345;43.964;25.340;2023-06-22T14:19:27;7.80;;;6.25;;
43835;SDS011;39345;43.964;25.340;2023-06-22T14:21:55;11.23;;;6.45;;
43835;SDS011;39345;43.964;25.340;2023-06-22T14:24:23;9.90;;;6.72;;
43835;SDS011;39345;43.964;25.340;2023-06-22T14:26:57;7.80;;;6.57;;
43835;SDS011;39345;43.964;25.340;2023-06-22T14:29:25;9.20;;;6.25;;
43835;SDS011;39345;43.964;25.340;2023-06-22T14:31:52;10.68;;;6.03;;
43835;SDS011;39345;43.964;25.340;2023-06-22T14:34:20;9.48;;;6.35;;
43835;SDS011;39345;43.964;25.340;2023-06-22T14:36:48;10.85;;;6.90;;
43835;SDS011;39345;43.964;25.340;2023-06-22T14:39:15;10.32;;;6.75;;
43835;SDS011;39345;43.964;25.340;2023-06-22T14:41:46;6.22;;;5.63;;